Terminal Aerodrome Forecast
Issued by NWS Omaha/Valley, NE

Home | Current Version | Previous Version | Text Only | Print | Product List | Glossary Off
Versions: 1 2 3 4 5 6 7 8 9 10 11 12 13 14 15 16 17 18 19 20

000
FTUS43 KOAX 220722 AAB
TAFOFK
TAF AMD
KOFK 220722Z 2207/2306 17012G20KT P6SM SKC WS020/21048KT
     FM221400 19015G22KT P6SM SKC
     FM221600 19020G30KT P6SM SKC
     FM230200 17014KT P6SM SKC=

USA.gov is the U.S. government's official web portal to all federal, state and local government web resources and services.